Aduana, Mexico

5:14 PM EDT on June 23, 2018 (GMT -0400)
Paseo del mar Residencial Campestre Cancun | | Change Station

Elev 26 ft 21.10 °N, 86.85 °W | Updated 22 seconds ago

Mostly Cloudy
Mostly Cloudy
87.8 °F
Feels Like 104 °F
N
2.9
Wind Variable Wind from ESE
Gusts 4.9 mph

Today
High -- | Low -- °F
--% Chance of Precip.
Yesterday
High -- | Low -- °F
Precip. -- in
Pressure 29.94 in
Visibility 8.0 miles
Clouds Scattered Clouds 1500 ft
Scattered Clouds 25000 ft
Heat Index 104 °F
Dew Point 80 °F
Humidity 78%
Rainfall 0.15 in
Snow Depth Not available.
7:07 AM 8:32 PM
Waxing Gibbous, 83% visible
METAR MMCZ 232049Z 15010KT 8SM SCT015TCU SCT250 30/23 A2992 RMK SLP137 57013 900 8/208 SC
Pressure 29.94 in
Visibility 8.0 miles
Clouds Scattered Clouds 1500 ft
Scattered Clouds 25000 ft
Heat Index 104 °F
Dew Point 80 °F
Humidity 78%
Rainfall 0.15 in
Snow Depth Not available.
7:07 AM 8:32 PM
Waxing Gibbous, 83% visible
METAR MMCZ 232049Z 15010KT 8SM SCT015TCU SCT250 30/23 A2992 RMK SLP137 57013 900 8/208 SC

Get Severe Weather Alerts

Thanks for signing up!

Be on the lookout for a verification email in your inbox.

You'll start receiving the daily forecast at 6 AM.

×

10-Day Weather Forecast

No radar image for this location.
×

Almanac

Astronomy

Jun. 23, 2018 Rise Set
Actual Time
Civil Twilight
Nautical Twilight
Astronomical Twilight
Moon
Length of Visible Light
Length of Day
Tomorrow will be .
, % of the Moon is Illuminated

Today's Extremes

Country Highs Country Lows

Community

WunderPhotos

Category 6

Welcome to Category 6. This is the collective home for Weather Underground's featured writeups by Dr. Jeff Masters (right), Bob Henson (left), Chris Burt, and other regular contributors.

Nearby

Air Quality

  Air Quality AQ Index Pollutant
Not available.

Snow Depth

Station Depth Elevation

Earthquake Activity

City Distance Mag. Time & Date
Minimum magnitude displayed is 2.5.

Coastal Water Temperatures

Place Temperature

Stations

Nearby Weather Stations

Station Location Temp. Windchill Dew Point Humidity Wind Precip. Elev Updated Type